sensor_id;sensor_type;location;lat;lon;timestamp;temperature;humidity
24232;DHT22;12364;47.810;8.810;2023-07-09T04:32:49;21.90;90.10
24232;DHT22;12364;47.810;8.810;2023-07-09T04:35:17;22.00;90.10
24232;DHT22;12364;47.810;8.810;2023-07-09T04:37:44;22.00;90.10
24232;DHT22;12364;47.810;8.810;2023-07-09T04:40:11;22.00;90.30
24232;DHT22;12364;47.810;8.810;2023-07-09T04:42:38;22.00;90.20
24232;DHT22;12364;47.810;8.810;2023-07-09T04:45:07;22.10;90.20
24232;DHT22;12364;47.810;8.810;2023-07-09T04:47:34;22.10;90.20
24232;DHT22;12364;47.810;8.810;2023-07-09T04:50:02;22.00;90.30
24232;DHT22;12364;47.810;8.810;2023-07-09T04:52:30;22.00;90.50
24232;DHT22;12364;47.810;8.810;2023-07-09T04:54:57;22.00;90.50
24232;DHT22;12364;47.810;8.810;2023-07-09T04:57:27;22.10;90.60
24232;DHT22;12364;47.810;8.810;2023-07-09T04:59:54;22.10;90.50
24232;DHT22;12364;47.810;8.810;2023-07-09T05:02:21;22.10;90.60
24232;DHT22;12364;47.810;8.810;2023-07-09T05:04:48;22.10;90.60
24232;DHT22;12364;47.810;8.810;2023-07-09T05:07:15;22.10;90.70
24232;DHT22;12364;47.810;8.810;2023-07-09T05:09:42;22.10;90.80
24232;DHT22;12364;47.810;8.810;2023-07-09T05:12:09;22.20;91.00
24232;DHT22;12364;47.810;8.810;2023-07-09T05:14:36;22.20;91.00
24232;DHT22;12364;47.810;8.810;2023-07-09T05:17:03;22.20;91.00
24232;DHT22;12364;47.810;8.810;2023-07-09T05:19:31;22.20;91.10
24232;DHT22;12364;47.810;8.810;2023-07-09T05:21:58;22.20;91.10
24232;DHT22;12364;47.810;8.810;2023-07-09T05:24:25;22.20;91.30
24232;DHT22;12364;47.810;8.810;2023-07-09T05:26:54;22.30;91.20
24232;DHT22;12364;47.810;8.810;2023-07-09T05:29:22;22.30;91.30
24232;DHT22;12364;47.810;8.810;2023-07-09T05:31:49;22.60;91.50
24232;DHT22;12364;47.810;8.810;2023-07-09T05:34:16;22.40;91.30
24232;DHT22;12364;47.810;8.810;2023-07-09T05:36:43;22.50;91.20
24232;DHT22;12364;47.810;8.810;2023-07-09T05:39:11;22.50;91.50
24232;DHT22;12364;47.810;8.810;2023-07-09T05:41:38;22.60;91.40
24232;DHT22;12364;47.810;8.810;2023-07-09T05:44:07;22.60;91.50
24232;DHT22;12364;47.810;8.810;2023-07-09T05:46:34;22.60;91.60
24232;DHT22;12364;47.810;8.810;2023-07-09T05:49:05;22.70;91.50
24232;DHT22;12364;47.810;8.810;2023-07-09T05:51:32;22.70;91.50
24232;DHT22;12364;47.810;8.810;2023-07-09T05:53:59;22.80;91.60
24232;DHT22;12364;47.810;8.810;2023-07-09T05:56:27;22.90;91.40
24232;DHT22;12364;47.810;8.810;2023-07-09T05:58:54;23.00;90.80
24232;DHT22;12364;47.810;8.810;2023-07-09T06:01:21;23.00;90.70
24232;DHT22;12364;47.810;8.810;2023-07-09T06:03:48;23.00;90.60
24232;DHT22;12364;47.810;8.810;2023-07-09T06:06:16;23.10;90.60
24232;DHT22;12364;47.810;8.810;2023-07-09T06:08:44;23.20;90.60
24232;DHT22;12364;47.810;8.810;2023-07-09T06:11:11;23.20;91.20
24232;DHT22;12364;47.810;8.810;2023-07-09T06:13:38;23.30;90.90
24232;DHT22;12364;47.810;8.810;2023-07-09T06:16:05;23.40;90.70
24232;DHT22;12364;47.810;8.810;2023-07-09T06:18:33;23.40;90.60
24232;DHT22;12364;47.810;8.810;2023-07-09T06:21:01;23.50;90.80
24232;DHT22;12364;47.810;8.810;2023-07-09T06:23:29;23.60;90.60
24232;DHT22;12364;47.810;8.810;2023-07-09T06:25:56;23.60;90.40
24232;DHT22;12364;47.810;8.810;2023-07-09T06:28:24;23.70;90.60
24232;DHT22;12364;47.810;8.810;2023-07-09T06:30:51;23.80;90.40
24232;DHT22;12364;47.810;8.810;2023-07-09T06:33:18;23.90;90.00
24232;DHT22;12364;47.810;8.810;2023-07-09T06:35:49;23.90;89.60
24232;DHT22;12364;47.810;8.810;2023-07-09T06:38:16;23.90;89.40
24232;DHT22;12364;47.810;8.810;2023-07-09T06:40:44;24.00;89.20
24232;DHT22;12364;47.810;8.810;2023-07-09T06:43:11;24.00;89.10
24232;DHT22;12364;47.810;8.810;2023-07-09T06:45:38;24.10;88.60
24232;DHT22;12364;47.810;8.810;2023-07-09T06:48:05;24.20;88.80
24232;DHT22;12364;47.810;8.810;2023-07-09T06:50:33;24.20;89.40
24232;DHT22;12364;47.810;8.810;2023-07-09T06:53:00;24.30;90.00
24232;DHT22;12364;47.810;8.810;2023-07-09T06:55:27;24.30;89.40
24232;DHT22;12364;47.810;8.810;2023-07-09T06:57:54;24.40;89.20
24232;DHT22;12364;47.810;8.810;2023-07-09T07:00:21;24.40;88.60
24232;DHT22;12364;47.810;8.810;2023-07-09T07:02:48;24.50;88.90
24232;DHT22;12364;47.810;8.810;2023-07-09T07:05:15;24.50;88.80
24232;DHT22;12364;47.810;8.810;2023-07-09T07:07:43;24.60;88.80
24232;DHT22;12364;47.810;8.810;2023-07-09T07:10:10;24.70;90.00
24232;DHT22;12364;47.810;8.810;2023-07-09T07:12:41;24.70;89.60
24232;DHT22;12364;47.810;8.810;2023-07-09T07:15:08;24.80;89.30
24232;DHT22;12364;47.810;8.810;2023-07-09T07:17:36;24.80;88.70
24232;DHT22;12364;47.810;8.810;2023-07-09T07:20:03;24.80;89.60
24232;DHT22;12364;47.810;8.810;2023-07-09T07:22:31;24.90;88.70
24232;DHT22;12364;47.810;8.810;2023-07-09T07:24:58;25.00;89.40
24232;DHT22;12364;47.810;8.810;2023-07-09T07:27:25;25.00;89.40
24232;DHT22;12364;47.810;8.810;2023-07-09T07:29:52;25.00;89.00
24232;DHT22;12364;47.810;8.810;2023-07-09T07:32:20;25.10;89.70
24232;DHT22;12364;47.810;8.810;2023-07-09T07:34:47;25.10;89.50
24232;DHT22;12364;47.810;8.810;2023-07-09T07:37:17;25.20;88.60
24232;DHT22;12364;47.810;8.810;2023-07-09T07:39:46;25.30;89.10
24232;DHT22;12364;47.810;8.810;2023-07-09T07:42:13;25.30;89.30
24232;DHT22;12364;47.810;8.810;2023-07-09T07:44:40;25.30;89.30
24232;DHT22;12364;47.810;8.810;2023-07-09T07:47:07;25.40;89.30
24232;DHT22;12364;47.810;8.810;2023-07-09T07:49:35;25.40;89.10
24232;DHT22;12364;47.810;8.810;2023-07-09T07:52:02;25.50;89.50
24232;DHT22;12364;47.810;8.810;2023-07-09T07:54:30;25.50;88.80
24232;DHT22;12364;47.810;8.810;2023-07-09T07:57:00;25.60;88.50
24232;DHT22;12364;47.810;8.810;2023-07-09T07:59:27;25.60;88.50
24232;DHT22;12364;47.810;8.810;2023-07-09T08:01:54;25.60;88.70
24232;DHT22;12364;47.810;8.810;2023-07-09T08:04:21;25.60;88.90
24232;DHT22;12364;47.810;8.810;2023-07-09T08:06:49;25.70;88.90
24232;DHT22;12364;47.810;8.810;2023-07-09T08:09:16;25.80;88.80
24232;DHT22;12364;47.810;8.810;2023-07-09T08:11:43;25.80;88.90
24232;DHT22;12364;47.810;8.810;2023-07-09T08:14:10;25.80;88.60
24232;DHT22;12364;47.810;8.810;2023-07-09T08:16:38;25.90;88.50
24232;DHT22;12364;47.810;8.810;2023-07-09T08:19:05;26.00;89.00
24232;DHT22;12364;47.810;8.810;2023-07-09T08:21:32;26.10;88.00
24232;DHT22;12364;47.810;8.810;2023-07-09T08:23:59;26.10;88.00
24232;DHT22;12364;47.810;8.810;2023-07-09T08:26:26;26.20;87.70
24232;DHT22;12364;47.810;8.810;2023-07-09T08:28:53;26.20;86.60
24232;DHT22;12364;47.810;8.810;2023-07-09T08:31:21;26.30;85.50
24232;DHT22;12364;47.810;8.810;2023-07-09T08:33:48;26.30;85.70
24232;DHT22;12364;47.810;8.810;2023-07-09T08:36:15;26.40;85.40
24232;DHT22;12364;47.810;8.810;2023-07-09T08:38:42;26.40;83.90
24232;DHT22;12364;47.810;8.810;2023-07-09T08:41:15;26.40;83.20
24232;DHT22;12364;47.810;8.810;2023-07-09T08:43:56;26.50;82.70
24232;DHT22;12364;47.810;8.810;2023-07-09T08:46:40;26.60;82.90
24232;DHT22;12364;47.810;8.810;2023-07-09T08:49:49;26.60;82.00
24232;DHT22;12364;47.810;8.810;2023-07-09T08:52:10;26.70;81.00
24232;DHT22;12364;47.810;8.810;2023-07-09T08:54:39;26.70;81.50
24232;DHT22;12364;47.810;8.810;2023-07-09T08:57:17;26.80;80.00
24232;DHT22;12364;47.810;8.810;2023-07-09T08:59:46;26.80;81.20
24232;DHT22;12364;47.810;8.810;2023-07-09T09:02:16;26.80;81.70
24232;DHT22;12364;47.810;8.810;2023-07-09T09:04:45;26.90;81.90
24232;DHT22;12364;47.810;8.810;2023-07-09T09:09:58;27.00;81.70
24232;DHT22;12364;47.810;8.810;2023-07-09T09:12:59;27.00;81.10
24232;DHT22;12364;47.810;8.810;2023-07-09T09:15:18;27.10;80.70
24232;DHT22;12364;47.810;8.810;2023-07-09T09:17:46;27.10;81.90
24232;DHT22;12364;47.810;8.810;2023-07-09T09:20:19;27.10;82.10
24232;DHT22;12364;47.810;8.810;2023-07-09T09:27:43;27.30;82.70
24232;DHT22;12364;47.810;8.810;2023-07-09T09:30:13;27.30;81.90
24232;DHT22;12364;47.810;8.810;2023-07-09T09:32:44;27.40;81.80
24232;DHT22;12364;47.810;8.810;2023-07-09T09:35:12;27.40;81.80
24232;DHT22;12364;47.810;8.810;2023-07-09T09:37:40;27.40;81.20
24232;DHT22;12364;47.810;8.810;2023-07-09T09:40:08;27.40;81.10
24232;DHT22;12364;47.810;8.810;2023-07-09T09:42:43;27.50;80.50
24232;DHT22;12364;47.810;8.810;2023-07-09T09:45:11;27.60;80.00
24232;DHT22;12364;47.810;8.810;2023-07-09T09:47:40;27.60;80.70
24232;DHT22;12364;47.810;8.810;2023-07-09T09:50:09;27.70;80.60
24232;DHT22;12364;47.810;8.810;2023-07-09T09:52:36;27.70;80.20
24232;DHT22;12364;47.810;8.810;2023-07-09T09:55:10;27.80;79.80
24232;DHT22;12364;47.810;8.810;2023-07-09T09:57:38;27.90;78.80
24232;DHT22;12364;47.810;8.810;2023-07-09T10:00:05;28.00;80.00
24232;DHT22;12364;47.810;8.810;2023-07-09T10:02:38;28.00;80.50
24232;DHT22;12364;47.810;8.810;2023-07-09T10:05:10;28.10;80.50
24232;DHT22;12364;47.810;8.810;2023-07-09T10:07:39;28.10;79.00
24232;DHT22;12364;47.810;8.810;2023-07-09T10:10:17;28.20;80.30
24232;DHT22;12364;47.810;8.810;2023-07-09T10:20:38;28.40;77.70
24232;DHT22;12364;47.810;8.810;2023-07-09T10:33:12;28.60;77.00
24232;DHT22;12364;47.810;8.810;2023-07-09T10:35:54;28.70;76.80
24232;DHT22;12364;47.810;8.810;2023-07-09T10:41:10;28.80;76.90
24232;DHT22;12364;47.810;8.810;2023-07-09T10:43:56;28.80;77.50
24232;DHT22;12364;47.810;8.810;2023-07-09T10:46:27;28.80;78.00
24232;DHT22;12364;47.810;8.810;2023-07-09T10:48:55;28.90;78.00
24232;DHT22;12364;47.810;8.810;2023-07-09T10:51:25;28.90;76.50
24232;DHT22;12364;47.810;8.810;2023-07-09T10:54:05;28.90;75.00
24232;DHT22;12364;47.810;8.810;2023-07-09T10:56:34;29.00;76.30
24232;DHT22;12364;47.810;8.810;2023-07-09T10:59:13;29.00;77.00
24232;DHT22;12364;47.810;8.810;2023-07-09T11:01:43;29.00;75.60
24232;DHT22;12364;47.810;8.810;2023-07-09T11:04:35;29.10;74.40
24232;DHT22;12364;47.810;8.810;2023-07-09T11:07:01;29.10;75.80
24232;DHT22;12364;47.810;8.810;2023-07-09T11:09:30;29.10;75.50
24232;DHT22;12364;47.810;8.810;2023-07-09T11:11:59;29.10;75.50
24232;DHT22;12364;47.810;8.810;2023-07-09T11:16:55;29.20;75.60
24232;DHT22;12364;47.810;8.810;2023-07-09T11:19:23;29.30;74.80
24232;DHT22;12364;47.810;8.810;2023-07-09T11:24:48;29.40;75.10
24232;DHT22;12364;47.810;8.810;2023-07-09T11:27:23;29.40;75.60
24232;DHT22;12364;47.810;8.810;2023-07-09T11:29:58;29.40;74.80
24232;DHT22;12364;47.810;8.810;2023-07-09T11:32:25;29.50;75.40
24232;DHT22;12364;47.810;8.810;2023-07-09T11:34:53;29.50;74.00
24232;DHT22;12364;47.810;8.810;2023-07-09T11:37:23;29.50;74.20
24232;DHT22;12364;47.810;8.810;2023-07-09T11:39:51;29.60;74.80
24232;DHT22;12364;47.810;8.810;2023-07-09T11:44:59;29.60;74.90
24232;DHT22;12364;47.810;8.810;2023-07-09T11:47:30;29.70;74.70
24232;DHT22;12364;47.810;8.810;2023-07-09T11:50:04;29.70;75.00
24232;DHT22;12364;47.810;8.810;2023-07-09T11:52:42;29.70;74.70
24232;DHT22;12364;47.810;8.810;2023-07-09T11:58:12;29.70;74.60
24232;DHT22;12364;47.810;8.810;2023-07-09T12:00:40;29.70;73.20
24232;DHT22;12364;47.810;8.810;2023-07-09T12:03:26;29.70;73.20
24232;DHT22;12364;47.810;8.810;2023-07-09T12:05:55;29.70;73.80
24232;DHT22;12364;47.810;8.810;2023-07-09T12:08:26;29.70;73.30
24232;DHT22;12364;47.810;8.810;2023-07-09T12:10:54;29.80;73.80
24232;DHT22;12364;47.810;8.810;2023-07-09T12:13:21;29.80;73.50
24232;DHT22;12364;47.810;8.810;2023-07-09T12:15:48;29.90;71.80
24232;DHT22;12364;47.810;8.810;2023-07-09T12:18:15;29.90;69.90
24232;DHT22;12364;47.810;8.810;2023-07-09T12:20:45;30.00;69.30
24232;DHT22;12364;47.810;8.810;2023-07-09T12:23:22;30.10;72.00
24232;DHT22;12364;47.810;8.810;2023-07-09T12:25:49;30.10;72.00
24232;DHT22;12364;47.810;8.810;2023-07-09T12:28:17;30.10;71.10
24232;DHT22;12364;47.810;8.810;2023-07-09T12:30:45;30.10;69.80
24232;DHT22;12364;47.810;8.810;2023-07-09T12:33:18;30.10;68.50
24232;DHT22;12364;47.810;8.810;2023-07-09T12:35:45;30.10;67.70
24232;DHT22;12364;47.810;8.810;2023-07-09T12:38:17;30.10;67.60
24232;DHT22;12364;47.810;8.810;2023-07-09T12:40:45;30.20;68.70
24232;DHT22;12364;47.810;8.810;2023-07-09T12:43:12;30.20;67.90
24232;DHT22;12364;47.810;8.810;2023-07-09T12:45:39;30.20;67.90
24232;DHT22;12364;47.810;8.810;2023-07-09T12:48:07;30.20;66.60
24232;DHT22;12364;47.810;8.810;2023-07-09T12:50:34;30.20;66.40
24232;DHT22;12364;47.810;8.810;2023-07-09T12:53:13;30.20;68.00
24232;DHT22;12364;47.810;8.810;2023-07-09T12:55:41;30.30;65.50
24232;DHT22;12364;47.810;8.810;2023-07-09T12:58:09;30.30;66.30
24232;DHT22;12364;47.810;8.810;2023-07-09T13:00:36;30.30;64.60
24232;DHT22;12364;47.810;8.810;2023-07-09T13:03:08;30.30;64.90
24232;DHT22;12364;47.810;8.810;2023-07-09T13:05:38;30.30;64.90
24232;DHT22;12364;47.810;8.810;2023-07-09T13:08:11;30.40;63.00
24232;DHT22;12364;47.810;8.810;2023-07-09T13:10:40;30.50;65.20
24232;DHT22;12364;47.810;8.810;2023-07-09T13:13:11;30.50;64.10
24232;DHT22;12364;47.810;8.810;2023-07-09T13:15:40;30.60;62.30
24232;DHT22;12364;47.810;8.810;2023-07-09T13:18:10;30.60;60.70
24232;DHT22;12364;47.810;8.810;2023-07-09T13:20:38;30.60;62.20
24232;DHT22;12364;47.810;8.810;2023-07-09T13:23:12;30.70;60.00
24232;DHT22;12364;47.810;8.810;2023-07-09T13:25:39;30.70;60.90
24232;DHT22;12364;47.810;8.810;2023-07-09T13:30:43;30.80;64.40
24232;DHT22;12364;47.810;8.810;2023-07-09T13:33:10;30.80;63.10
24232;DHT22;12364;47.810;8.810;2023-07-09T13:35:38;30.80;59.00
24232;DHT22;12364;47.810;8.810;2023-07-09T13:38:11;30.90;59.80
24232;DHT22;12364;47.810;8.810;2023-07-09T13:40:39;30.90;61.20
24232;DHT22;12364;47.810;8.810;2023-07-09T13:43:49;30.90;57.00
24232;DHT22;12364;47.810;8.810;2023-07-09T13:45:57;31.00;59.20
24232;DHT22;12364;47.810;8.810;2023-07-09T13:48:24;31.10;57.20
24232;DHT22;12364;47.810;8.810;2023-07-09T13:50:52;31.10;57.60
24232;DHT22;12364;47.810;8.810;2023-07-09T13:53:21;31.20;57.10
24232;DHT22;12364;47.810;8.810;2023-07-09T13:55:49;31.20;56.50
24232;DHT22;12364;47.810;8.810;2023-07-09T13:58:18;31.30;56.80
24232;DHT22;12364;47.810;8.810;2023-07-09T14:00:46;31.30;55.80
24232;DHT22;12364;47.810;8.810;2023-07-09T14:05:41;31.40;55.20
24232;DHT22;12364;47.810;8.810;2023-07-09T14:08:09;31.40;58.70
24232;DHT22;12364;47.810;8.810;2023-07-09T14:10:37;31.50;57.50
24232;DHT22;12364;47.810;8.810;2023-07-09T14:13:05;31.50;57.40
24232;DHT22;12364;47.810;8.810;2023-07-09T14:15:32;31.50;54.70
24232;DHT22;12364;47.810;8.810;2023-07-09T14:17:58;31.50;58.80
24232;DHT22;12364;47.810;8.810;2023-07-09T14:20:26;31.50;58.90
24232;DHT22;12364;47.810;8.810;2023-07-09T14:22:53;31.50;60.20
24232;DHT22;12364;47.810;8.810;2023-07-09T14:25:24;31.50;58.70
24232;DHT22;12364;47.810;8.810;2023-07-09T14:27:52;31.50;59.90
24232;DHT22;12364;47.810;8.810;2023-07-09T14:30:21;31.50;59.40
24232;DHT22;12364;47.810;8.810;2023-07-09T14:32:49;31.50;57.50
24232;DHT22;12364;47.810;8.810;2023-07-09T14:35:18;31.50;56.80
24232;DHT22;12364;47.810;8.810;2023-07-09T14:37:46;31.50;56.60
24232;DHT22;12364;47.810;8.810;2023-07-09T14:40:14;31.60;57.70
24232;DHT22;12364;47.810;8.810;2023-07-09T14:42:42;31.60;57.50
24232;DHT22;12364;47.810;8.810;2023-07-09T14:45:16;31.70;57.40
24232;DHT22;12364;47.810;8.810;2023-07-09T14:47:43;31.60;56.70
24232;DHT22;12364;47.810;8.810;2023-07-09T14:50:10;31.70;57.20
24232;DHT22;12364;47.810;8.810;2023-07-09T14:52:37;31.60;61.60
24232;DHT22;12364;47.810;8.810;2023-07-09T14:55:05;31.60;57.00
24232;DHT22;12364;47.810;8.810;2023-07-09T14:57:32;31.60;60.30
24232;DHT22;12364;47.810;8.810;2023-07-09T15:00:00;31.60;59.80
24232;DHT22;12364;47.810;8.810;2023-07-09T15:02:34;31.60;57.80
24232;DHT22;12364;47.810;8.810;2023-07-09T15:05:03;31.70;56.00
24232;DHT22;12364;47.810;8.810;2023-07-09T15:07:30;31.70;56.50
24232;DHT22;12364;47.810;8.810;2023-07-09T15:09:59;31.70;59.90
24232;DHT22;12364;47.810;8.810;2023-07-09T15:12:27;31.80;56.40
24232;DHT22;12364;47.810;8.810;2023-07-09T15:14:57;31.80;56.10
24232;DHT22;12364;47.810;8.810;2023-07-09T15:17:27;31.80;55.90
24232;DHT22;12364;47.810;8.810;2023-07-09T15:19:54;31.90;56.20
24232;DHT22;12364;47.810;8.810;2023-07-09T15:22:27;31.90;56.30
24232;DHT22;12364;47.810;8.810;2023-07-09T15:24:55;32.00;56.00
24232;DHT22;12364;47.810;8.810;2023-07-09T15:27:22;32.00;56.30
24232;DHT22;12364;47.810;8.810;2023-07-09T15:29:49;32.00;55.80
24232;DHT22;12364;47.810;8.810;2023-07-09T15:32:17;32.00;60.20
24232;DHT22;12364;47.810;8.810;2023-07-09T15:34:44;32.00;57.80
24232;DHT22;12364;47.810;8.810;2023-07-09T15:37:12;32.00;55.10
24232;DHT22;12364;47.810;8.810;2023-07-09T15:39:39;32.00;56.00
24232;DHT22;12364;47.810;8.810;2023-07-09T15:42:09;32.00;58.80
24232;DHT22;12364;47.810;8.810;2023-07-09T15:44:36;32.00;60.50
24232;DHT22;12364;47.810;8.810;2023-07-09T15:47:03;32.00;58.90
24232;DHT22;12364;47.810;8.810;2023-07-09T15:49:34;32.00;60.50
24232;DHT22;12364;47.810;8.810;2023-07-09T15:52:00;31.90;61.60
24232;DHT22;12364;47.810;8.810;2023-07-09T15:54:28;31.90;57.20
24232;DHT22;12364;47.810;8.810;2023-07-09T15:56:55;31.90;56.30
24232;DHT22;12364;47.810;8.810;2023-07-09T15:59:27;32.00;56.90
24232;DHT22;12364;47.810;8.810;2023-07-09T16:01:54;32.10;58.90
24232;DHT22;12364;47.810;8.810;2023-07-09T16:04:22;32.10;57.10
24232;DHT22;12364;47.810;8.810;2023-07-09T16:06:49;32.20;56.90
24232;DHT22;12364;47.810;8.810;2023-07-09T16:09:16;32.20;59.20
24232;DHT22;12364;47.810;8.810;2023-07-09T16:11:47;32.20;60.00
24232;DHT22;12364;47.810;8.810;2023-07-09T16:14:28;32.20;58.90
24232;DHT22;12364;47.810;8.810;2023-07-09T16:16:56;32.10;56.40
24232;DHT22;12364;47.810;8.810;2023-07-09T16:19:24;32.20;56.80
24232;DHT22;12364;47.810;8.810;2023-07-09T16:21:58;32.20;56.50
24232;DHT22;12364;47.810;8.810;2023-07-09T16:24:30;32.30;55.80
24232;DHT22;12364;47.810;8.810;2023-07-09T16:26:58;33.30;57.00
24232;DHT22;12364;47.810;8.810;2023-07-09T16:29:27;35.10;55.00
24232;DHT22;12364;47.810;8.810;2023-07-09T16:31:55;35.10;55.90
24232;DHT22;12364;47.810;8.810;2023-07-09T16:34:26;34.90;56.20
24232;DHT22;12364;47.810;8.810;2023-07-09T16:36:54;34.80;57.50
24232;DHT22;12364;47.810;8.810;2023-07-09T16:39:23;34.60;55.10
24232;DHT22;12364;47.810;8.810;2023-07-09T16:41:50;34.40;53.10
24232;DHT22;12364;47.810;8.810;2023-07-09T16:44:17;34.30;54.40
24232;DHT22;12364;47.810;8.810;2023-07-09T16:46:44;34.00;52.50
24232;DHT22;12364;47.810;8.810;2023-07-09T16:49:27;33.80;54.10
24232;DHT22;12364;47.810;8.810;2023-07-09T16:51:55;33.70;52.40
24232;DHT22;12364;47.810;8.810;2023-07-09T16:54:23;33.50;56.00
24232;DHT22;12364;47.810;8.810;2023-07-09T16:56:50;33.40;55.10
24232;DHT22;12364;47.810;8.810;2023-07-09T16:59:18;33.30;56.30
24232;DHT22;12364;47.810;8.810;2023-07-09T17:01:45;33.20;58.00
24232;DHT22;12364;47.810;8.810;2023-07-09T17:04:20;33.10;59.20
24232;DHT22;12364;47.810;8.810;2023-07-09T17:06:48;33.00;59.00
24232;DHT22;12364;47.810;8.810;2023-07-09T17:09:18;32.90;55.90
24232;DHT22;12364;47.810;8.810;2023-07-09T17:11:55;32.90;57.50
24232;DHT22;12364;47.810;8.810;2023-07-09T17:14:23;32.90;56.50
24232;DHT22;12364;47.810;8.810;2023-07-09T17:16:50;32.90;58.00
24232;DHT22;12364;47.810;8.810;2023-07-09T17:19:17;32.90;60.10
24232;DHT22;12364;47.810;8.810;2023-07-09T17:21:45;32.90;58.30
24232;DHT22;12364;47.810;8.810;2023-07-09T17:24:15;32.80;60.80
24232;DHT22;12364;47.810;8.810;2023-07-09T17:26:45;32.80;60.00
24232;DHT22;12364;47.810;8.810;2023-07-09T17:29:12;32.80;59.20
24232;DHT22;12364;47.810;8.810;2023-07-09T17:31:39;32.80;59.50
24232;DHT22;12364;47.810;8.810;2023-07-09T17:34:05;32.70;60.10
24232;DHT22;12364;47.810;8.810;2023-07-09T17:36:33;32.80;59.30
24232;DHT22;12364;47.810;8.810;2023-07-09T17:39:00;32.70;61.50
24232;DHT22;12364;47.810;8.810;2023-07-09T17:41:27;32.70;61.40
24232;DHT22;12364;47.810;8.810;2023-07-09T17:43:54;32.70;60.60
24232;DHT22;12364;47.810;8.810;2023-07-09T17:46:21;32.70;61.10
24232;DHT22;12364;47.810;8.810;2023-07-09T17:48:48;32.70;61.50
24232;DHT22;12364;47.810;8.810;2023-07-09T17:51:15;32.70;58.20
24232;DHT22;12364;47.810;8.810;2023-07-09T17:53:42;32.70;57.30
24232;DHT22;12364;47.810;8.810;2023-07-09T17:56:17;32.70;59.60
24232;DHT22;12364;47.810;8.810;2023-07-09T17:58:45;32.80;60.80
24232;DHT22;12364;47.810;8.810;2023-07-09T18:01:12;32.80;61.60
24232;DHT22;12364;47.810;8.810;2023-07-09T18:03:39;32.70;61.90
24232;DHT22;12364;47.810;8.810;2023-07-09T18:06:06;32.80;58.80
24232;DHT22;12364;47.810;8.810;2023-07-09T18:08:33;32.80;61.50
24232;DHT22;12364;47.810;8.810;2023-07-09T18:11:00;32.70;62.20
24232;DHT22;12364;47.810;8.810;2023-07-09T18:13:28;32.70;62.60
24232;DHT22;12364;47.810;8.810;2023-07-09T18:15:56;32.70;62.90
24232;DHT22;12364;47.810;8.810;2023-07-09T18:18:24;32.60;61.00
24232;DHT22;12364;47.810;8.810;2023-07-09T18:20:51;32.60;63.00
24232;DHT22;12364;47.810;8.810;2023-07-09T18:23:18;32.60;62.40
24232;DHT22;12364;47.810;8.810;2023-07-09T18:25:48;32.50;62.30
24232;DHT22;12364;47.810;8.810;2023-07-09T18:28:18;32.50;62.70
24232;DHT22;12364;47.810;8.810;2023-07-09T18:30:46;32.50;64.20
24232;DHT22;12364;47.810;8.810;2023-07-09T18:33:19;32.50;64.30
24232;DHT22;12364;47.810;8.810;2023-07-09T18:35:46;32.50;64.40
24232;DHT22;12364;47.810;8.810;2023-07-09T18:38:14;32.50;64.60
24232;DHT22;12364;47.810;8.810;2023-07-09T18:40:41;32.50;65.20
24232;DHT22;12364;47.810;8.810;2023-07-09T18:43:17;32.50;65.10
24232;DHT22;12364;47.810;8.810;2023-07-09T18:45:58;32.50;65.50
24232;DHT22;12364;47.810;8.810;2023-07-09T18:48:26;32.40;66.00
24232;DHT22;12364;47.810;8.810;2023-07-09T18:50:56;32.40;65.50
24232;DHT22;12364;47.810;8.810;2023-07-09T18:53:24;32.40;65.50
24232;DHT22;12364;47.810;8.810;2023-07-09T18:55:52;32.30;66.60
24232;DHT22;12364;47.810;8.810;2023-07-09T18:58:21;32.30;65.90
24232;DHT22;12364;47.810;8.810;2023-07-09T19:00:49;32.20;65.80
24232;DHT22;12364;47.810;8.810;2023-07-09T19:03:16;32.10;65.30
24232;DHT22;12364;47.810;8.810;2023-07-09T19:05:45;32.10;66.20
24232;DHT22;12364;47.810;8.810;2023-07-09T19:08:33;32.00;66.80
24232;DHT22;12364;47.810;8.810;2023-07-09T19:11:02;31.90;65.00
24232;DHT22;12364;47.810;8.810;2023-07-09T19:13:29;31.80;66.40
24232;DHT22;12364;47.810;8.810;2023-07-09T19:15:56;31.80;66.00
24232;DHT22;12364;47.810;8.810;2023-07-09T19:18:28;31.70;65.20
24232;DHT22;12364;47.810;8.810;2023-07-09T19:20:58;31.60;64.20
24232;DHT22;12364;47.810;8.810;2023-07-09T19:23:26;31.60;63.90
24232;DHT22;12364;47.810;8.810;2023-07-09T19:25:54;31.50;63.20
24232;DHT22;12364;47.810;8.810;2023-07-09T19:28:21;31.40;63.90
24232;DHT22;12364;47.810;8.810;2023-07-09T19:30:49;31.40;64.20
24232;DHT22;12364;47.810;8.810;2023-07-09T19:33:17;31.30;63.30
24232;DHT22;12364;47.810;8.810;2023-07-09T19:35:45;31.20;64.60
24232;DHT22;12364;47.810;8.810;2023-07-09T19:38:12;31.20;64.60
24232;DHT22;12364;47.810;8.810;2023-07-09T19:40:39;31.10;65.20
24232;DHT22;12364;47.810;8.810;2023-07-09T19:43:06;31.00;64.50
24232;DHT22;12364;47.810;8.810;2023-07-09T19:45:37;31.00;65.60
24232;DHT22;12364;47.810;8.810;2023-07-09T19:48:07;30.90;64.50
24232;DHT22;12364;47.810;8.810;2023-07-09T19:50:38;30.90;65.10
24232;DHT22;12364;47.810;8.810;2023-07-09T19:53:19;30.80;64.60
24232;DHT22;12364;47.810;8.810;2023-07-09T19:55:46;30.70;64.20
24232;DHT22;12364;47.810;8.810;2023-07-09T19:58:13;30.70;63.90
24232;DHT22;12364;47.810;8.810;2023-07-09T20:00:40;30.60;64.40
24232;DHT22;12364;47.810;8.810;2023-07-09T20:05:47;30.50;64.10
24232;DHT22;12364;47.810;8.810;2023-07-09T20:08:14;30.40;64.20
24232;DHT22;12364;47.810;8.810;2023-07-09T20:10:42;30.30;64.70
24232;DHT22;12364;47.810;8.810;2023-07-09T20:13:12;30.20;65.00
24232;DHT22;12364;47.810;8.810;2023-07-09T20:15:39;30.10;65.20
24232;DHT22;12364;47.810;8.810;2023-07-09T20:18:12;30.10;65.70
24232;DHT22;12364;47.810;8.810;2023-07-09T20:20:39;30.00;64.80
24232;DHT22;12364;47.810;8.810;2023-07-09T20:23:09;30.00;65.50
24232;DHT22;12364;47.810;8.810;2023-07-09T20:25:38;29.90;66.10
24232;DHT22;12364;47.810;8.810;2023-07-09T20:28:39;29.90;66.30
24232;DHT22;12364;47.810;8.810;2023-07-09T20:30:58;29.80;66.60
24232;DHT22;12364;47.810;8.810;2023-07-09T20:33:25;29.80;66.90
24232;DHT22;12364;47.810;8.810;2023-07-09T20:35:54;29.70;67.00
24232;DHT22;12364;47.810;8.810;2023-07-09T20:38:22;29.60;68.00
24232;DHT22;12364;47.810;8.810;2023-07-09T20:40:49;29.60;68.20
24232;DHT22;12364;47.810;8.810;2023-07-09T20:43:20;29.60;69.90
24232;DHT22;12364;47.810;8.810;2023-07-09T20:45:48;29.50;70.70
24232;DHT22;12364;47.810;8.810;2023-07-09T20:48:15;29.40;70.60
24232;DHT22;12364;47.810;8.810;2023-07-09T20:50:42;29.40;71.20
24232;DHT22;12364;47.810;8.810;2023-07-09T20:53:11;29.30;71.60
24232;DHT22;12364;47.810;8.810;2023-07-09T20:55:38;29.20;71.80
24232;DHT22;12364;47.810;8.810;2023-07-09T20:58:15;29.10;71.90
24232;DHT22;12364;47.810;8.810;2023-07-09T21:00:44;29.00;71.90